createdAt,value
2017-11-26T00:00:00.396Z,54.90
2017-11-26T00:01:05.443Z,54.80
2017-11-26T00:02:10.350Z,54.80
2017-11-26T00:03:15.556Z,54.90
2017-11-26T00:04:21.168Z,54.90
2017-11-26T00:05:26.077Z,54.90
2017-11-26T00:06:31.151Z,54.90
2017-11-26T00:07:36.099Z,54.90
2017-11-26T00:08:41.256Z,54.90
2017-11-26T00:09:47.192Z,54.90
2017-11-26T00:10:52.454Z,54.90
2017-11-26T00:11:57.830Z,54.90
2017-11-26T00:13:03.124Z,55.00
2017-11-26T00:14:08.329Z,55.00
2017-11-26T00:15:14.136Z,55.00
2017-11-26T00:16:19.339Z,55.00
2017-11-26T00:17:24.621Z,55.00
2017-11-26T00:18:29.500Z,55.10
2017-11-26T00:19:34.325Z,55.00
2017-11-26T00:20:39.272Z,55.20
2017-11-26T00:21:44.170Z,55.10
2017-11-26T00:22:48.826Z,55.20
2017-11-26T00:23:53.674Z,55.10
2017-11-26T00:24:58.741Z,55.10
2017-11-26T00:26:03.728Z,55.20
2017-11-26T00:27:08.611Z,55.20
2017-11-26T00:28:13.382Z,55.20
2017-11-26T00:29:18.337Z,55.20
2017-11-26T00:30:23.057Z,55.20
2017-11-26T00:31:27.819Z,55.20
2017-11-26T00:32:32.837Z,55.30
2017-11-26T00:33:37.611Z,55.30
2017-11-26T00:34:42.319Z,55.30
2017-11-26T00:35:46.935Z,55.30
2017-11-26T00:36:51.678Z,55.30
2017-11-26T00:37:56.407Z,55.40
2017-11-26T00:39:01.279Z,55.40
2017-11-26T00:40:06.038Z,55.40
2017-11-26T00:41:10.985Z,55.40
2017-11-26T00:42:15.849Z,55.40
2017-11-26T00:43:20.738Z,55.40
2017-11-26T00:44:25.487Z,55.40
2017-11-26T00:45:30.234Z,55.40
2017-11-26T00:46:35.231Z,55.40
2017-11-26T00:47:39.882Z,55.40
2017-11-26T00:48:44.749Z,55.50
2017-11-26T00:49:49.473Z,55.50
2017-11-26T00:50:54.350Z,55.50
2017-11-26T00:51:59.051Z,55.50
2017-11-26T00:53:03.933Z,55.50
2017-11-26T00:54:08.758Z,55.50
2017-11-26T00:55:13.489Z,55.50
2017-11-26T00:56:18.101Z,55.50
2017-11-26T00:57:22.841Z,55.60
2017-11-26T00:58:27.555Z,55.60
2017-11-26T00:59:32.403Z,55.60
2017-11-26T01:00:37.234Z,55.70
2017-11-26T01:01:42.085Z,55.60
2017-11-26T01:02:46.996Z,55.60
2017-11-26T01:03:51.616Z,55.70
2017-11-26T01:04:56.259Z,55.70
2017-11-26T01:06:00.839Z,55.70
2017-11-26T01:07:05.394Z,55.70
2017-11-26T01:08:10.154Z,55.70
2017-11-26T01:09:14.889Z,55.70
2017-11-26T01:10:19.866Z,55.70
2017-11-26T01:11:24.493Z,55.60
2017-11-26T01:12:29.369Z,55.60
2017-11-26T01:13:34.074Z,55.60
2017-11-26T01:14:39.043Z,55.60
2017-11-26T01:15:43.954Z,55.60
2017-11-26T01:16:48.730Z,55.60
2017-11-26T01:17:53.647Z,55.70
2017-11-26T01:18:58.286Z,55.70
2017-11-26T01:20:02.999Z,55.70
2017-11-26T01:21:07.874Z,55.60
2017-11-26T01:22:12.650Z,55.70
2017-11-26T01:23:17.410Z,55.70
2017-11-26T01:24:22.299Z,55.70
2017-11-26T01:25:26.908Z,55.70
2017-11-26T01:26:31.662Z,55.70
2017-11-26T01:27:36.348Z,55.70
2017-11-26T01:28:41.127Z,55.70
2017-11-26T01:29:45.770Z,55.70
2017-11-26T01:30:50.399Z,55.70
2017-11-26T01:31:55.015Z,55.80
2017-11-26T01:32:59.723Z,55.80
2017-11-26T01:34:04.604Z,55.80
2017-11-26T01:35:09.478Z,56.20
2017-11-26T01:36:14.297Z,55.80
2017-11-26T01:37:19.036Z,55.80
2017-11-26T01:38:23.659Z,55.80
2017-11-26T01:39:28.404Z,55.80
2017-11-26T01:40:33.248Z,55.90
2017-11-26T01:41:37.959Z,55.80
2017-11-26T01:42:42.803Z,55.90
2017-11-26T01:43:47.760Z,55.90
2017-11-26T01:44:52.647Z,55.90
2017-11-26T01:45:57.379Z,55.90
2017-11-26T01:47:02.302Z,56.00
2017-11-26T01:48:07.036Z,55.90
2017-11-26T01:49:11.697Z,56.00
2017-11-26T01:50:16.426Z,56.00
2017-11-26T01:51:21.583Z,55.90
2017-11-26T01:52:26.191Z,55.90
2017-11-26T01:53:30.868Z,55.90
2017-11-26T01:54:35.512Z,55.80
2017-11-26T01:55:40.313Z,55.90
2017-11-26T01:56:45.211Z,55.90
2017-11-26T01:57:50.124Z,55.90
2017-11-26T01:58:54.913Z,55.90
2017-11-26T01:59:59.761Z,55.90
2017-11-26T02:01:04.407Z,55.90
2017-11-26T02:02:09.086Z,55.90
2017-11-26T02:03:13.986Z,55.90
2017-11-26T02:04:18.950Z,55.90
2017-11-26T02:05:23.667Z,55.90
2017-11-26T02:06:28.310Z,56.60
2017-11-26T02:07:33.020Z,55.90
2017-11-26T02:08:37.830Z,55.90
2017-11-26T02:09:42.751Z,55.90
2017-11-26T02:10:47.520Z,56.00
2017-11-26T02:11:52.300Z,55.90
2017-11-26T02:12:57.057Z,55.90
2017-11-26T02:14:01.929Z,56.50
2017-11-26T02:15:06.864Z,55.80
2017-11-26T02:16:11.708Z,55.90
2017-11-26T02:17:16.475Z,55.90
2017-11-26T02:18:21.381Z,55.90
2017-11-26T02:19:26.327Z,55.90
2017-11-26T02:20:31.122Z,55.90
2017-11-26T02:21:36.033Z,55.90
2017-11-26T02:22:40.721Z,55.90
2017-11-26T02:23:45.420Z,55.90
2017-11-26T02:24:50.243Z,55.90
2017-11-26T02:25:55.096Z,55.90
2017-11-26T02:26:59.782Z,55.90
2017-11-26T02:28:04.552Z,55.80
2017-11-26T02:29:09.320Z,55.90
2017-11-26T02:30:13.898Z,56.00
2017-11-26T02:31:18.728Z,55.90
2017-11-26T02:32:23.342Z,55.90
2017-11-26T02:33:28.259Z,55.90
2017-11-26T02:34:32.905Z,55.90
2017-11-26T02:35:37.605Z,55.90
2017-11-26T02:36:42.501Z,55.90
2017-11-26T02:37:47.464Z,56.00
2017-11-26T02:38:52.197Z,55.90
2017-11-26T02:39:57.105Z,56.00
2017-11-26T02:41:01.821Z,55.90
2017-11-26T02:42:06.375Z,55.90
2017-11-26T02:43:11.168Z,55.90
2017-11-26T02:44:15.981Z,56.00
2017-11-26T02:45:20.798Z,55.90
2017-11-26T02:46:25.585Z,55.90
2017-11-26T02:47:30.344Z,55.90
2017-11-26T02:48:35.023Z,56.00
2017-11-26T02:49:39.710Z,56.00
2017-11-26T02:50:44.512Z,56.60
2017-11-26T02:51:49.300Z,56.00
2017-11-26T02:52:54.113Z,55.90
2017-11-26T02:53:58.917Z,56.10
2017-11-26T02:55:03.511Z,56.00
2017-11-26T02:56:08.272Z,56.00
2017-11-26T02:57:12.941Z,56.00
2017-11-26T02:58:17.667Z,56.00
2017-11-26T02:59:22.435Z,56.00
2017-11-26T03:00:27.189Z,56.00
2017-11-26T03:01:31.823Z,56.00
2017-11-26T03:02:36.438Z,56.00
2017-11-26T03:03:41.461Z,56.00
2017-11-26T03:04:46.319Z,56.00
2017-11-26T03:05:51.201Z,56.00
2017-11-26T03:06:55.974Z,56.00
2017-11-26T03:08:01.146Z,56.00
2017-11-26T03:09:17.908Z,56.00
2017-11-26T03:10:22.742Z,56.00
2017-11-26T03:11:27.530Z,55.90
2017-11-26T03:12:32.493Z,56.00
2017-11-26T03:13:37.197Z,55.90
2017-11-26T03:14:41.977Z,55.90
2017-11-26T03:15:46.851Z,56.00
2017-11-26T03:16:51.586Z,56.00
2017-11-26T03:17:56.190Z,56.00
2017-11-26T03:19:00.887Z,56.00
2017-11-26T03:20:08.412Z,56.00
2017-11-26T03:21:13.313Z,56.00
2017-11-26T03:22:18.023Z,56.00
2017-11-26T03:23:22.685Z,56.00
2017-11-26T03:24:27.430Z,56.00
2017-11-26T03:25:32.531Z,56.10
2017-11-26T03:26:37.246Z,56.00
2017-11-26T03:27:42.020Z,56.10
2017-11-26T03:28:46.712Z,56.10
2017-11-26T03:29:51.471Z,56.10
2017-11-26T03:30:56.318Z,56.10
2017-11-26T03:32:01.202Z,56.10
2017-11-26T03:33:05.898Z,56.70
2017-11-26T03:34:10.561Z,56.00
2017-11-26T03:35:15.476Z,56.00
2017-11-26T03:36:20.262Z,56.00
2017-11-26T03:37:25.079Z,56.00
2017-11-26T03:38:29.664Z,56.00
2017-11-26T03:39:34.414Z,56.00
2017-11-26T03:40:39.128Z,56.00
2017-11-26T03:41:43.925Z,56.00
2017-11-26T03:42:48.606Z,56.00
2017-11-26T03:43:53.304Z,56.00
2017-11-26T03:44:58.396Z,56.00
2017-11-26T03:46:03.075Z,56.00
2017-11-26T03:47:07.932Z,56.00
2017-11-26T03:48:12.800Z,56.00
2017-11-26T03:49:17.739Z,56.00
2017-11-26T03:50:22.540Z,56.00
2017-11-26T03:51:27.342Z,56.00
2017-11-26T03:52:32.226Z,56.00
2017-11-26T03:53:36.895Z,56.00
2017-11-26T03:54:41.750Z,56.00
2017-11-26T03:55:46.697Z,56.10
2017-11-26T03:56:51.284Z,56.10
2017-11-26T03:57:56.145Z,56.00
2017-11-26T03:59:01.016Z,56.00
2017-11-26T04:00:05.657Z,56.00
2017-11-26T04:01:10.296Z,56.00
2017-11-26T04:02:15.022Z,56.00
2017-11-26T04:03:19.853Z,55.90
2017-11-26T04:04:24.470Z,56.10
2017-11-26T04:05:29.179Z,56.00
2017-11-26T04:06:34.023Z,56.00
2017-11-26T04:07:38.823Z,56.00
2017-11-26T04:08:43.539Z,56.00
2017-11-26T04:09:48.445Z,56.00
2017-11-26T04:10:53.198Z,56.10
2017-11-26T04:11:57.995Z,56.00
2017-11-26T04:13:02.800Z,56.00
2017-11-26T04:14:07.761Z,56.00
2017-11-26T04:15:12.524Z,56.10
2017-11-26T04:16:17.398Z,56.00
2017-11-26T04:17:22.042Z,56.00
2017-11-26T04:18:26.822Z,56.00
2017-11-26T04:19:31.449Z,56.00
2017-11-26T04:20:36.212Z,56.00
2017-11-26T04:21:40.971Z,56.00
2017-11-26T04:22:45.552Z,56.00
2017-11-26T04:23:50.494Z,56.00
2017-11-26T04:24:55.244Z,56.00
2017-11-26T04:26:00.030Z,56.00
2017-11-26T04:27:04.793Z,56.00
2017-11-26T04:28:09.701Z,56.00
2017-11-26T04:29:14.450Z,56.00
2017-11-26T04:30:19.224Z,55.90
2017-11-26T04:31:23.966Z,55.90
2017-11-26T04:32:28.712Z,55.90
2017-11-26T04:33:33.574Z,55.90
2017-11-26T04:34:38.186Z,55.90
2017-11-26T04:35:43.087Z,55.90
2017-11-26T04:36:48.008Z,55.90
2017-11-26T04:37:52.687Z,55.80
2017-11-26T04:38:57.618Z,55.90
2017-11-26T04:40:02.483Z,55.80
2017-11-26T04:41:07.108Z,55.80
2017-11-26T04:42:12.014Z,55.80
2017-11-26T04:43:17.011Z,55.80
2017-11-26T04:44:21.823Z,55.80
2017-11-26T04:45:26.535Z,55.70
2017-11-26T04:46:31.355Z,55.80
2017-11-26T04:47:36.199Z,55.70
2017-11-26T04:48:41.160Z,55.80
2017-11-26T04:49:45.883Z,55.70
2017-11-26T04:50:50.966Z,55.70
2017-11-26T04:51:55.721Z,55.80
2017-11-26T04:53:00.470Z,55.80
2017-11-26T04:54:20.006Z,55.70
2017-11-26T04:55:33.221Z,55.80
2017-11-26T04:56:53.096Z,55.70
2017-11-26T04:57:57.886Z,55.70
2017-11-26T04:59:02.880Z,55.70
2017-11-26T05:00:07.639Z,55.70
2017-11-26T05:01:12.463Z,55.70
2017-11-26T05:02:17.182Z,55.70
2017-11-26T05:03:22.063Z,55.70
2017-11-26T05:04:27.046Z,55.70
2017-11-26T05:05:31.927Z,55.70
2017-11-26T05:06:36.784Z,55.70
2017-11-26T05:07:41.703Z,55.70
2017-11-26T05:08:46.617Z,55.60
2017-11-26T05:09:51.580Z,55.60
2017-11-26T05:10:56.353Z,55.60
2017-11-26T05:12:01.325Z,55.70
2017-11-26T05:13:06.080Z,55.60
2017-11-26T05:14:11.039Z,55.60
2017-11-26T05:15:15.725Z,55.60
2017-11-26T05:16:20.623Z,55.60
2017-11-26T05:17:25.445Z,55.60
2017-11-26T05:18:30.334Z,55.60
2017-11-26T05:19:35.064Z,55.60
2017-11-26T05:20:39.800Z,55.70
2017-11-26T05:21:44.686Z,55.60
2017-11-26T05:22:49.662Z,55.60
2017-11-26T05:23:54.336Z,55.60
2017-11-26T05:24:59.069Z,55.60
2017-11-26T05:26:03.940Z,55.60
2017-11-26T05:27:08.761Z,55.60
2017-11-26T05:28:13.521Z,55.60
2017-11-26T05:29:18.478Z,55.60
2017-11-26T05:30:23.174Z,55.60
2017-11-26T05:31:27.864Z,55.60
2017-11-26T05:32:32.746Z,55.70
2017-11-26T05:33:37.659Z,55.70
2017-11-26T05:34:42.590Z,55.70
2017-11-26T05:35:47.407Z,55.60
2017-11-26T05:36:52.249Z,55.70
2017-11-26T05:37:57.031Z,55.70
2017-11-26T05:39:01.829Z,55.70
2017-11-26T05:40:06.635Z,55.70
2017-11-26T05:41:11.527Z,55.70
2017-11-26T05:42:16.373Z,55.70
2017-11-26T05:43:21.141Z,55.70
2017-11-26T05:44:25.981Z,55.70
2017-11-26T05:45:30.738Z,55.70
2017-11-26T05:46:35.594Z,55.60
2017-11-26T05:47:40.486Z,55.60
2017-11-26T05:48:45.319Z,55.60
2017-11-26T05:49:50.180Z,55.60
2017-11-26T05:50:55.039Z,55.60
2017-11-26T05:51:59.939Z,55.60
2017-11-26T05:53:05.013Z,55.60
2017-11-26T05:54:09.922Z,55.60
2017-11-26T05:55:15.662Z,55.60
2017-11-26T05:56:20.879Z,55.60
2017-11-26T05:57:25.918Z,55.60
2017-11-26T05:58:30.955Z,55.60
2017-11-26T05:59:36.581Z,55.70
2017-11-26T06:00:41.310Z,55.70
2017-11-26T06:01:46.271Z,55.70
2017-11-26T06:02:51.201Z,55.70
2017-11-26T06:03:56.270Z,55.70
2017-11-26T06:05:01.517Z,55.70
2017-11-26T06:06:06.258Z,55.60
2017-11-26T06:07:11.149Z,55.60
2017-11-26T06:08:15.969Z,55.60
2017-11-26T06:09:21.162Z,55.60
2017-11-26T06:10:26.187Z,55.60
2017-11-26T06:11:31.372Z,55.60
2017-11-26T06:12:36.557Z,55.50
2017-11-26T06:13:41.668Z,55.50
2017-11-26T06:14:46.712Z,55.50
2017-11-26T06:15:51.799Z,55.50
2017-11-26T06:16:56.760Z,55.50
2017-11-26T06:18:01.627Z,55.50
2017-11-26T06:19:06.658Z,55.50
2017-11-26T06:20:11.908Z,55.40
2017-11-26T06:21:17.100Z,55.50
2017-11-26T06:22:22.073Z,55.50
2017-11-26T06:23:27.000Z,55.40
2017-11-26T06:24:31.929Z,55.50
2017-11-26T06:25:37.151Z,55.50
2017-11-26T06:26:42.187Z,55.50
2017-11-26T06:27:47.443Z,55.40
2017-11-26T06:28:52.288Z,55.40
2017-11-26T06:29:57.115Z,55.40
2017-11-26T06:31:02.986Z,55.50
2017-11-26T06:32:07.960Z,55.40
2017-11-26T06:33:13.087Z,55.50
2017-11-26T06:34:17.871Z,55.50
2017-11-26T06:35:23.036Z,55.40
2017-11-26T06:36:28.166Z,55.40
2017-11-26T06:37:33.362Z,55.40
2017-11-26T06:38:38.081Z,55.50
2017-11-26T06:39:43.222Z,55.40
2017-11-26T06:40:48.257Z,55.50
2017-11-26T06:41:53.355Z,55.40
2017-11-26T06:42:58.091Z,55.40
2017-11-26T06:44:02.894Z,55.50
2017-11-26T06:45:07.769Z,55.50
2017-11-26T06:46:12.542Z,55.50
2017-11-26T06:47:17.506Z,55.40
2017-11-26T06:48:22.599Z,55.40
2017-11-26T06:49:27.495Z,55.40
2017-11-26T06:50:32.253Z,56.10
2017-11-26T06:51:40.146Z,55.40
2017-11-26T06:52:45.229Z,55.50
2017-11-26T06:53:50.354Z,55.50
2017-11-26T06:54:55.501Z,55.40
2017-11-26T06:56:00.512Z,55.50
2017-11-26T06:57:05.630Z,55.40
2017-11-26T06:58:10.845Z,55.50
2017-11-26T06:59:16.041Z,55.40
2017-11-26T07:00:21.074Z,55.40
2017-11-26T07:01:26.096Z,55.50
2017-11-26T07:02:31.107Z,55.40
2017-11-26T07:03:36.227Z,55.40
2017-11-26T07:04:41.266Z,55.40
2017-11-26T07:05:47.571Z,55.50
2017-11-26T07:06:52.350Z,55.50
2017-11-26T07:07:57.365Z,55.50
2017-11-26T07:09:02.204Z,55.50
2017-11-26T07:10:07.161Z,55.50
2017-11-26T07:11:12.005Z,55.40
2017-11-26T07:12:16.816Z,55.40
2017-11-26T07:13:21.858Z,55.40
2017-11-26T07:14:26.741Z,55.40
2017-11-26T07:15:31.547Z,55.40
2017-11-26T07:16:36.563Z,55.40
2017-11-26T07:17:41.354Z,55.40
2017-11-26T07:18:46.470Z,55.40
2017-11-26T07:19:51.240Z,55.40
2017-11-26T07:20:56.192Z,55.40
2017-11-26T07:22:02.738Z,55.40
2017-11-26T07:23:07.944Z,55.40
2017-11-26T07:24:12.721Z,55.50
2017-11-26T07:25:17.716Z,55.60
2017-11-26T07:26:22.609Z,55.50
2017-11-26T07:27:27.713Z,55.40
2017-11-26T07:28:32.704Z,55.40
2017-11-26T07:29:37.947Z,55.40
2017-11-26T07:30:43.177Z,55.40
2017-11-26T07:31:48.135Z,55.40
2017-11-26T07:32:52.995Z,55.40
2017-11-26T07:33:58.007Z,55.40
2017-11-26T07:35:02.891Z,55.40
2017-11-26T07:36:07.776Z,55.20
2017-11-26T07:37:12.782Z,55.20
2017-11-26T07:38:17.906Z,55.00
2017-11-26T07:39:23.045Z,54.90
2017-11-26T07:40:28.139Z,54.70
2017-11-26T07:41:33.070Z,54.80
2017-11-26T07:42:38.289Z,54.60
2017-11-26T07:43:43.328Z,54.60
2017-11-26T07:44:48.277Z,54.50
2017-11-26T07:45:53.390Z,54.40
2017-11-26T07:46:58.504Z,54.30
2017-11-26T07:48:03.444Z,54.40
2017-11-26T07:49:08.485Z,54.30
2017-11-26T07:50:13.489Z,54.20
2017-11-26T07:51:18.532Z,54.30
2017-11-26T07:52:23.776Z,54.40
2017-11-26T07:53:28.729Z,54.40
2017-11-26T07:54:33.745Z,54.40
2017-11-26T07:55:38.876Z,54.50
2017-11-26T07:56:44.031Z,54.50
2017-11-26T07:57:49.044Z,54.60
2017-11-26T07:58:54.251Z,54.80
2017-11-26T07:59:59.235Z,55.40
2017-11-26T08:01:04.431Z,55.60
2017-11-26T08:02:09.792Z,55.80
2017-11-26T08:03:14.811Z,55.80
2017-11-26T08:04:20.145Z,55.90
2017-11-26T08:05:25.397Z,55.90
2017-11-26T08:06:30.479Z,56.00
2017-11-26T08:07:35.507Z,56.00
2017-11-26T08:08:40.682Z,55.90
2017-11-26T08:09:46.033Z,55.50
2017-11-26T08:10:51.289Z,55.50
2017-11-26T08:11:56.629Z,55.50
2017-11-26T08:13:01.967Z,55.50
2017-11-26T08:14:07.949Z,55.70
2017-11-26T08:15:13.304Z,55.70
2017-11-26T08:16:20.027Z,55.80
2017-11-26T08:17:25.059Z,55.90
2017-11-26T08:18:30.234Z,56.00
2017-11-26T08:19:35.789Z,56.10
2017-11-26T08:20:40.828Z,56.10
2017-11-26T08:21:46.021Z,56.20
2017-11-26T08:22:51.388Z,56.30
2017-11-26T08:23:56.527Z,56.40
2017-11-26T08:25:01.758Z,56.50
2017-11-26T08:26:07.201Z,56.50
2017-11-26T08:27:12.489Z,56.60
2017-11-26T08:28:17.405Z,56.60
2017-11-26T08:29:22.737Z,56.70
2017-11-26T08:30:27.961Z,56.80
2017-11-26T08:31:33.051Z,56.80
2017-11-26T08:32:38.150Z,56.90
2017-11-26T08:33:43.403Z,56.90
2017-11-26T08:34:48.498Z,57.00
2017-11-26T08:35:53.522Z,57.00
2017-11-26T08:36:58.895Z,57.10
2017-11-26T08:38:04.151Z,57.20
2017-11-26T08:39:09.500Z,57.20
2017-11-26T08:40:14.605Z,57.30
2017-11-26T08:41:19.709Z,57.40
2017-11-26T08:42:24.523Z,57.40
2017-11-26T08:43:29.891Z,57.60
2017-11-26T08:44:35.040Z,57.70
2017-11-26T08:45:40.412Z,57.70
2017-11-26T08:46:45.334Z,57.60
2017-11-26T08:47:50.967Z,57.50
2017-11-26T08:48:56.637Z,57.50
2017-11-26T08:50:03.053Z,57.60
2017-11-26T08:51:08.176Z,57.70
2017-11-26T08:52:13.478Z,58.40
2017-11-26T08:53:18.475Z,57.90
2017-11-26T08:54:23.948Z,57.90
2017-11-26T08:55:29.073Z,57.90
2017-11-26T08:56:34.364Z,57.90
2017-11-26T08:57:40.631Z,58.10
2017-11-26T08:58:48.903Z,58.10
2017-11-26T08:59:54.303Z,58.10
2017-11-26T09:00:59.747Z,58.20
2017-11-26T09:02:05.266Z,58.20
2017-11-26T09:03:11.095Z,58.40
2017-11-26T09:04:16.487Z,58.40
2017-11-26T09:05:23.015Z,58.40
2017-11-26T09:06:28.542Z,58.50
2017-11-26T09:07:34.108Z,58.60
2017-11-26T09:08:39.482Z,58.70
2017-11-26T09:09:44.606Z,58.80
2017-11-26T09:10:51.275Z,58.80
2017-11-26T09:11:57.234Z,58.80
2017-11-26T09:13:02.818Z,58.80
2017-11-26T09:14:08.150Z,58.70
2017-11-26T09:15:13.601Z,58.70
2017-11-26T09:16:18.765Z,58.90
2017-11-26T09:17:24.043Z,59.00
2017-11-26T09:18:29.419Z,64.40
2017-11-26T09:19:35.375Z,62.20
2017-11-26T09:20:41.470Z,60.80
2017-11-26T09:21:47.108Z,60.30
2017-11-26T09:22:53.963Z,60.20
2017-11-26T09:23:59.100Z,60.00
2017-11-26T09:25:04.297Z,60.10
2017-11-26T09:26:09.369Z,60.10
2017-11-26T09:27:14.528Z,60.10
2017-11-26T09:28:19.609Z,60.10
2017-11-26T09:29:26.830Z,60.10
2017-11-26T09:30:33.156Z,60.30
2017-11-26T09:31:38.505Z,60.30
2017-11-26T09:32:43.719Z,60.40
2017-11-26T09:33:48.810Z,60.60
2017-11-26T09:34:54.250Z,60.80
2017-11-26T09:35:59.599Z,60.70
2017-11-26T09:37:05.190Z,60.60
2017-11-26T09:38:10.633Z,61.10
2017-11-26T09:39:15.588Z,61.40
2017-11-26T09:40:20.708Z,61.60
2017-11-26T09:41:25.787Z,61.70
2017-11-26T09:42:31.027Z,61.70
2017-11-26T09:43:36.312Z,61.30
2017-11-26T09:44:41.311Z,54.60
2017-11-26T09:46:50.614Z,50.90
2017-11-26T09:47:55.776Z,48.10
2017-11-26T09:49:00.732Z,48.60
2017-11-26T09:50:05.941Z,46.80
2017-11-26T09:51:11.349Z,47.20
2017-11-26T09:52:18.577Z,49.20
2017-11-26T09:53:23.870Z,49.70
2017-11-26T09:54:29.105Z,49.90
2017-11-26T09:55:34.289Z,50.10
2017-11-26T09:56:39.455Z,50.40
2017-11-26T09:57:44.729Z,50.70
2017-11-26T09:58:49.811Z,50.90
2017-11-26T09:59:55.102Z,51.00
2017-11-26T10:01:00.458Z,51.80
2017-11-26T10:02:05.710Z,51.50
2017-11-26T10:03:11.197Z,51.70
2017-11-26T10:04:16.135Z,52.00
2017-11-26T10:05:21.367Z,52.20
2017-11-26T10:06:26.486Z,52.20
2017-11-26T10:07:31.886Z,52.20
2017-11-26T10:08:36.745Z,53.00
2017-11-26T10:09:42.103Z,53.20
2017-11-26T10:10:48.089Z,53.30
2017-11-26T10:11:53.109Z,53.40
2017-11-26T10:12:58.498Z,53.70
2017-11-26T10:14:03.591Z,53.70
2017-11-26T10:15:08.749Z,54.30
2017-11-26T10:16:13.944Z,54.20
2017-11-26T10:17:19.175Z,54.30
2017-11-26T10:18:26.049Z,54.70
2017-11-26T10:19:31.483Z,54.70
2017-11-26T10:20:36.906Z,54.80
2017-11-26T10:21:42.672Z,55.00
2017-11-26T10:22:48.812Z,55.20
2017-11-26T10:23:54.690Z,55.60
2017-11-26T10:25:00.718Z,55.60
2017-11-26T10:26:06.662Z,55.80
2017-11-26T10:27:12.145Z,56.10
2017-11-26T10:28:18.207Z,56.10
2017-11-26T10:29:24.535Z,56.00
2017-11-26T10:30:30.426Z,56.10
2017-11-26T10:31:36.067Z,56.10
2017-11-26T10:32:42.283Z,56.10
2017-11-26T10:33:47.693Z,56.30
2017-11-26T10:34:54.536Z,56.30
2017-11-26T10:36:01.218Z,56.40
2017-11-26T10:37:07.077Z,56.40
2017-11-26T10:38:12.788Z,56.50
2017-11-26T10:39:18.412Z,56.60
2017-11-26T10:40:26.185Z,56.60
2017-11-26T10:41:34.552Z,56.60
2017-11-26T10:42:43.240Z,56.70
2017-11-26T10:43:51.017Z,56.80
2017-11-26T10:44:59.543Z,56.80
2017-11-26T10:46:05.937Z,56.80
2017-11-26T10:47:12.871Z,56.90
2017-11-26T10:48:19.329Z,57.00
2017-11-26T10:49:25.585Z,57.50
2017-11-26T10:50:32.891Z,57.10
2017-11-26T10:51:38.436Z,57.10
2017-11-26T10:52:46.426Z,57.20
2017-11-26T10:53:53.436Z,57.30
2017-11-26T10:54:59.594Z,57.40
2017-11-26T10:56:06.197Z,57.40
2017-11-26T10:57:11.684Z,57.40
2017-11-26T10:58:16.862Z,57.60
2017-11-26T10:59:22.089Z,57.60
2017-11-26T11:00:27.503Z,57.80
2017-11-26T11:01:32.721Z,57.80
2017-11-26T11:02:38.221Z,58.00
2017-11-26T11:03:43.589Z,58.00
2017-11-26T11:04:48.879Z,58.10
2017-11-26T11:05:54.733Z,58.10
2017-11-26T11:07:00.671Z,58.20
2017-11-26T11:08:06.028Z,58.10
2017-11-26T11:09:11.432Z,58.20
2017-11-26T11:10:16.696Z,58.20
2017-11-26T11:11:21.732Z,58.20
2017-11-26T11:12:26.903Z,58.50
2017-11-26T11:13:32.211Z,58.30
2017-11-26T11:14:37.190Z,58.40
2017-11-26T11:15:42.270Z,58.50
2017-11-26T11:16:47.352Z,58.40
2017-11-26T11:17:52.545Z,58.50
2017-11-26T11:18:58.032Z,58.50
2017-11-26T11:20:03.277Z,58.40
2017-11-26T11:21:08.376Z,58.70
2017-11-26T11:22:13.714Z,58.60
2017-11-26T11:23:19.192Z,58.70
2017-11-26T11:24:24.990Z,58.70
2017-11-26T11:25:29.839Z,58.80
2017-11-26T11:26:35.066Z,58.80
2017-11-26T11:27:40.268Z,58.80
2017-11-26T11:28:45.293Z,58.80
2017-11-26T11:29:50.500Z,58.80
2017-11-26T11:30:55.688Z,58.90
2017-11-26T11:32:00.830Z,59.10
2017-11-26T11:33:06.157Z,59.20
2017-11-26T11:34:11.440Z,59.10
2017-11-26T11:35:17.416Z,59.10
2017-11-26T11:36:23.239Z,59.20
2017-11-26T11:37:28.611Z,59.30
2017-11-26T11:38:33.988Z,59.30
2017-11-26T11:39:39.601Z,59.30
2017-11-26T11:40:44.867Z,59.60
2017-11-26T11:41:50.246Z,59.80
2017-11-26T11:42:55.290Z,60.20
2017-11-26T11:44:00.544Z,60.40
2017-11-26T11:45:05.819Z,60.80
2017-11-26T11:46:11.271Z,61.20
2017-11-26T11:48:21.348Z,61.90
2017-11-26T11:49:26.671Z,63.50
2017-11-26T11:50:31.917Z,63.50
2017-11-26T11:51:37.137Z,63.30
2017-11-26T11:52:42.147Z,63.30
2017-11-26T11:53:47.512Z,63.50
2017-11-26T11:54:57.007Z,63.70
2017-11-26T11:56:02.473Z,63.70
2017-11-26T11:57:09.063Z,63.70
2017-11-26T11:58:14.446Z,63.80
2017-11-26T11:59:19.677Z,63.50
2017-11-26T12:00:25.267Z,63.20
2017-11-26T12:01:30.700Z,63.00
2017-11-26T12:02:35.791Z,62.80
2017-11-26T12:03:40.904Z,62.70
2017-11-26T12:04:46.430Z,62.50
2017-11-26T12:05:52.000Z,62.40
2017-11-26T12:06:57.468Z,62.20
2017-11-26T12:08:02.997Z,62.10
2017-11-26T12:09:08.817Z,62.80
2017-11-26T12:10:14.177Z,62.20
2017-11-26T12:11:20.036Z,62.30
2017-11-26T12:12:26.803Z,62.30
2017-11-26T12:13:31.944Z,62.30
2017-11-26T12:14:37.453Z,62.30
2017-11-26T12:15:42.581Z,62.30
2017-11-26T12:16:48.235Z,62.30
2017-11-26T12:17:53.646Z,62.30
2017-11-26T12:18:59.177Z,62.30
2017-11-26T12:20:04.623Z,62.40
2017-11-26T12:21:10.089Z,62.50
2017-11-26T12:22:15.858Z,62.60
2017-11-26T12:23:21.602Z,62.60
2017-11-26T12:24:27.116Z,62.70
2017-11-26T12:25:32.812Z,62.90
2017-11-26T12:26:39.216Z,62.90
2017-11-26T12:27:45.339Z,63.10
2017-11-26T12:28:50.708Z,63.30
2017-11-26T12:29:56.133Z,63.10
2017-11-26T12:31:01.585Z,63.10
2017-11-26T12:32:08.759Z,63.20
2017-11-26T12:33:15.044Z,63.20
2017-11-26T12:34:20.200Z,63.20
2017-11-26T12:35:25.836Z,63.30
2017-11-26T12:36:31.359Z,63.20
2017-11-26T12:37:36.564Z,63.20
2017-11-26T12:38:41.668Z,63.20
2017-11-26T12:39:47.157Z,63.10
2017-11-26T12:40:52.217Z,63.10
2017-11-26T12:41:57.485Z,63.00
2017-11-26T12:43:03.053Z,62.90
2017-11-26T12:44:09.142Z,62.70
2017-11-26T12:45:14.722Z,62.60
2017-11-26T12:46:19.835Z,62.50
2017-11-26T12:47:25.576Z,62.50
2017-11-26T12:48:30.927Z,62.30
2017-11-26T12:49:36.472Z,62.40
2017-11-26T12:50:41.754Z,62.30
2017-11-26T12:51:46.987Z,62.40
2017-11-26T12:52:52.258Z,62.40
2017-11-26T12:53:57.875Z,62.50
2017-11-26T12:55:03.648Z,62.50
2017-11-26T12:56:08.570Z,62.60
2017-11-26T12:57:13.579Z,62.50
2017-11-26T12:58:18.816Z,62.50
2017-11-26T12:59:23.951Z,62.60
2017-11-26T13:00:29.178Z,62.50
2017-11-26T13:01:34.969Z,62.40
2017-11-26T13:02:40.482Z,62.40
2017-11-26T13:03:45.693Z,62.40
2017-11-26T13:04:51.019Z,62.40
2017-11-26T13:05:56.220Z,62.40
2017-11-26T13:07:01.715Z,62.50
2017-11-26T13:08:07.229Z,62.50
2017-11-26T13:09:13.301Z,62.50
2017-11-26T13:10:19.561Z,62.50
2017-11-26T13:11:25.467Z,62.40
2017-11-26T13:12:30.845Z,62.40
2017-11-26T13:13:36.108Z,62.30
2017-11-26T13:14:44.435Z,62.30
2017-11-26T13:15:50.291Z,62.10
2017-11-26T13:16:55.635Z,62.10
2017-11-26T13:18:02.576Z,62.00
2017-11-26T13:19:08.612Z,62.00
2017-11-26T13:20:14.384Z,62.10
2017-11-26T13:21:20.410Z,62.00
2017-11-26T13:22:26.349Z,61.90
2017-11-26T13:23:31.904Z,61.80
2017-11-26T13:24:37.316Z,61.80
2017-11-26T13:25:42.660Z,61.60
2017-11-26T13:26:48.184Z,61.50
2017-11-26T13:27:53.333Z,61.60
2017-11-26T13:28:59.077Z,61.50
2017-11-26T13:30:04.543Z,61.40
2017-11-26T13:31:11.209Z,61.50
2017-11-26T13:32:16.865Z,61.40
2017-11-26T13:33:22.152Z,61.50
2017-11-26T13:34:27.722Z,61.60
2017-11-26T13:35:33.122Z,61.50
2017-11-26T13:36:38.499Z,61.50
2017-11-26T13:37:43.830Z,61.70
2017-11-26T13:38:49.413Z,61.70
2017-11-26T13:39:55.066Z,61.70
2017-11-26T13:41:00.627Z,61.70
2017-11-26T13:42:06.111Z,61.70
2017-11-26T13:43:11.561Z,61.90
2017-11-26T13:44:16.912Z,62.30
2017-11-26T13:45:23.285Z,62.40
2017-11-26T13:46:29.044Z,62.30
2017-11-26T13:47:34.932Z,62.20
2017-11-26T13:48:40.483Z,62.40
2017-11-26T13:49:45.999Z,62.40
2017-11-26T13:50:51.132Z,62.20
2017-11-26T13:51:56.790Z,62.00
2017-11-26T13:53:01.800Z,62.00
2017-11-26T13:54:06.950Z,62.00
2017-11-26T13:55:12.138Z,62.00
2017-11-26T13:56:16.868Z,62.00
2017-11-26T13:57:22.180Z,62.00
2017-11-26T13:58:27.973Z,62.00
2017-11-26T13:59:33.307Z,61.90
2017-11-26T14:00:38.418Z,62.00
2017-11-26T14:01:44.386Z,61.90